Time,TemperatureF,DewpointF,PressureIn,WindDirection,WindDirectionDegrees,WindSpeedMPH,WindSpeedGustMPH,Humidity,HourlyPrecipIn,Conditions,Clouds,dailyrainin,SoftwareType,DateUTC
2013-03-20 00:00:00,14.0,9.5,30.31,NW,319,13.0,15.0,82,0.00,,,0.00,Wunderground v.1.15,2013-03-20 05:00:00,
2013-03-20 00:06:00,14.2,9.4,30.32,NW,316,14.0,16.0,81,0.00,,,0.00,Wunderground v.1.15,2013-03-20 05:06:00,
2013-03-20 00:13:00,14.2,9.2,30.31,North,359,15.0,15.0,80,0.00,,,0.00,Wunderground v.1.15,2013-03-20 05:13:00,
2013-03-20 00:18:00,14.1,9.1,30.31,NNW,333,15.0,15.0,80,0.00,,,0.00,Wunderground v.1.15,2013-03-20 05:18:00,
2013-03-20 00:20:00,14.1,9.3,30.31,WNW,301,15.0,15.0,81,0.00,,,0.00,Wunderground v.1.15,2013-03-20 05:20:00,
2013-03-20 00:26:00,14.1,9.1,30.31,NW,309,15.0,19.0,80,0.00,,,0.00,Wunderground v.1.15,2013-03-20 05:26:00,
2013-03-20 00:31:00,14.1,9.1,30.31,NNW,327,15.0,15.0,80,0.00,,,0.00,Wunderground v.1.15,2013-03-20 05:31:00,
2013-03-20 00:35:00,14.0,9.2,30.32,NNW,328,15.0,17.0,81,0.00,,,0.00,Wunderground v.1.15,2013-03-20 05:35:00,
2013-03-20 00:38:00,14.1,9.3,30.32,NNW,329,14.0,17.0,81,0.00,,,0.00,Wunderground v.1.15,2013-03-20 05:38:00,
2013-03-20 00:42:00,14.0,9.8,30.32,North,350,14.0,16.0,83,0.00,,,0.00,Wunderground v.1.15,2013-03-20 05:42:00,
2013-03-20 00:44:00,14.0,9.8,30.32,NW,324,14.0,16.0,83,0.00,,,0.00,Wunderground v.1.15,2013-03-20 05:44:00,
2013-03-20 00:48:00,14.0,9.2,30.31,NNW,328,15.0,18.0,81,0.00,,,0.00,Wunderground v.1.15,2013-03-20 05:48:00,
2013-03-20 00:54:00,13.9,8.9,30.31,NW,305,16.0,19.0,80,0.00,,,0.00,Wunderground v.1.15,2013-03-20 05:54:00,
2013-03-20 00:55:00,13.9,8.9,30.31,NNW,328,15.0,19.0,80,0.00,,,0.00,Wunderground v.1.15,2013-03-20 05:55:00,
2013-03-20 01:00:00,13.9,8.3,30.31,NW,313,16.0,18.0,78,0.00,,,0.00,Wunderground v.1.15,2013-03-20 06:00:00,
2013-03-20 01:02:00,13.9,8.6,30.31,WNW,302,16.0,23.0,79,0.00,,,0.00,Wunderground v.1.15,2013-03-20 06:02:00,
2013-03-20 01:08:00,13.9,9.1,30.32,NW,321,16.0,23.0,81,0.00,,,0.00,Wunderground v.1.15,2013-03-20 06:08:00,
2013-03-20 01:12:00,13.7,8.4,30.31,NNW,330,14.0,23.0,79,0.00,,,0.00,Wunderground v.1.15,2013-03-20 06:12:00,
2013-03-20 01:14:00,13.7,8.4,30.31,NNW,340,14.0,23.0,79,0.00,,,0.00,Wunderground v.1.15,2013-03-20 06:14:00,
2013-03-20 01:20:00,13.6,9.1,30.31,NW,309,14.0,14.0,82,0.00,,,0.00,Wunderground v.1.15,2013-03-20 06:20:00,
2013-03-20 01:22:00,13.7,9.5,30.32,NW,317,13.0,23.0,83,0.00,,,0.00,Wunderground v.1.15,2013-03-20 06:22:00,
2013-03-20 01:25:00,13.7,9.5,30.32,NNW,332,13.0,23.0,83,0.00,,,0.00,Wunderground v.1.15,2013-03-20 06:25:00,
2013-03-20 01:32:00,13.5,9.3,30.32,NW,325,13.0,23.0,83,0.00,,,0.00,Wunderground v.1.15,2013-03-20 06:32:00,
2013-03-20 01:33:00,13.5,9.3,30.32,NNW,339,13.0,23.0,83,0.00,,,0.00,Wunderground v.1.15,2013-03-20 06:33:00,
2013-03-20 01:35:00,13.5,9.3,30.32,WNW,303,13.0,23.0,83,0.00,,,0.00,Wunderground v.1.15,2013-03-20 06:35:00,
2013-03-20 01:40:00,13.5,9.3,30.32,NW,311,12.0,12.0,83,0.00,,,0.00,Wunderground v.1.15,2013-03-20 06:40:00,
2013-03-20 01:42:00,13.6,9.4,30.32,NW,318,11.0,15.0,83,0.00,,,0.00,Wunderground v.1.15,2013-03-20 06:42:00,
2013-03-20 01:46:00,13.4,8.9,30.32,NW,317,12.0,23.0,82,0.00,,,0.00,Wunderground v.1.15,2013-03-20 06:46:00,
2013-03-20 01:50:00,13.3,9.1,30.32,NNW,329,13.0,13.0,83,0.00,,,0.00,Wunderground v.1.15,2013-03-20 06:50:00,
2013-03-20 01:53:00,13.1,9.2,30.32,NNW,330,15.0,15.0,84,0.00,,,0.00,Wunderground v.1.15,2013-03-20 06:53:00,
2013-03-20 01:56:00,13.0,9.1,30.32,NW,323,15.0,17.0,84,0.00,,,0.00,Wunderground v.1.15,2013-03-20 06:56:00,
2013-03-20 01:57:00,12.9,8.4,30.32,NNW,332,15.0,23.0,82,0.00,,,0.00,Wunderground v.1.15,2013-03-20 06:57:00,
2013-03-20 02:02:00,12.6,7.3,30.32,NW,307,14.0,23.0,79,0.00,,,0.00,Wunderground v.1.15,2013-03-20 07:02:00,
2013-03-20 02:04:00,12.5,7.2,30.32,NW,311,14.0,23.0,79,0.00,,,0.00,Wunderground v.1.15,2013-03-20 07:04:00,
2013-03-20 02:10:00,12.4,7.4,30.32,NW,304,14.0,14.0,80,0.00,,,0.00,Wunderground v.1.15,2013-03-20 07:10:00,
2013-03-20 02:12:00,12.4,7.4,30.32,WNW,303,14.0,23.0,80,0.00,,,0.00,Wunderground v.1.15,2013-03-20 07:12:00,
2013-03-20 02:17:00,12.1,7.4,30.32,NW,311,14.0,23.0,81,0.00,,,0.00,Wunderground v.1.15,2013-03-20 07:17:00,
2013-03-20 02:19:00,12.0,7.3,30.32,NNW,329,13.0,23.0,81,0.00,,,0.00,Wunderground v.1.15,2013-03-20 07:19:00,
2013-03-20 02:28:00,11.8,7.1,30.32,NW,308,14.0,23.0,81,0.00,,,0.00,Wunderground v.1.15,2013-03-20 07:28:00,
2013-03-20 02:30:00,11.7,7.3,30.33,NNW,332,14.0,23.0,82,0.00,,,0.00,Wunderground v.1.15,2013-03-20 07:30:00,
2013-03-20 02:34:00,11.6,7.2,30.33,NW,321,14.0,23.0,82,0.00,,,0.00,Wunderground v.1.15,2013-03-20 07:34:00,
2013-03-20 02:38:00,11.5,7.1,30.33,NW,314,14.0,23.0,82,0.00,,,0.00,Wunderground v.1.15,2013-03-20 07:38:00,
2013-03-20 02:42:00,11.3,6.9,30.33,NW,304,14.0,23.0,82,0.00,,,0.00,Wunderground v.1.15,2013-03-20 07:42:00,
2013-03-20 02:43:00,11.3,6.9,30.33,NW,314,14.0,23.0,82,0.00,,,0.00,Wunderground v.1.15,2013-03-20 07:43:00,
2013-03-20 02:45:00,11.2,6.8,30.33,NNW,339,14.0,23.0,82,0.00,,,0.00,Wunderground v.1.15,2013-03-20 07:45:00,
2013-03-20 02:48:00,11.2,7.0,30.33,NW,318,13.0,23.0,83,0.00,,,0.00,Wunderground v.1.15,2013-03-20 07:48:00,
2013-03-20 02:54:00,11.1,6.7,30.33,NW,324,12.0,23.0,82,0.00,,,0.00,Wunderground v.1.15,2013-03-20 07:54:00,
2013-03-20 02:56:00,11.1,6.9,30.33,NNW,332,11.0,23.0,83,0.00,,,0.00,Wunderground v.1.15,2013-03-20 07:56:00,
2013-03-20 02:58:00,11.1,6.9,30.33,NW,316,11.0,23.0,83,0.00,,,0.00,Wunderground v.1.15,2013-03-20 07:58:00,
2013-03-20 03:02:00,11.0,6.6,30.33,NNW,336,13.0,23.0,82,0.00,,,0.00,Wunderground v.1.15,2013-03-20 08:02:00,
2013-03-20 03:04:00,11.0,6.3,30.33,NNW,339,13.0,23.0,81,0.00,,,0.00,Wunderground v.1.15,2013-03-20 08:04:00,
2013-03-20 03:07:00,10.9,6.5,30.33,NW,316,13.0,23.0,82,0.00,,,0.00,Wunderground v.1.15,2013-03-20 08:07:00,
2013-03-20 03:09:00,10.8,6.7,30.33,NNW,342,13.0,13.0,83,0.00,,,0.00,Wunderground v.1.15,2013-03-20 08:09:00,
2013-03-20 03:11:00,10.8,6.7,30.33,NW,316,12.0,23.0,83,0.00,,,0.00,Wunderground v.1.15,2013-03-20 08:11:00,
2013-03-20 03:16:00,10.7,6.6,30.33,WNW,299,12.0,23.0,83,0.00,,,0.00,Wunderground v.1.15,2013-03-20 08:16:00,
2013-03-20 03:18:00,10.7,6.3,30.33,NW,313,12.0,23.0,82,0.00,,,0.00,Wunderground v.1.15,2013-03-20 08:18:00,
2013-03-20 03:22:00,10.6,6.2,30.33,NW,316,13.0,23.0,82,0.00,,,0.00,Wunderground v.1.15,2013-03-20 08:22:00,
2013-03-20 03:28:00,10.5,5.8,30.33,NNW,331,14.0,23.0,81,0.00,,,0.00,Wunderground v.1.15,2013-03-20 08:28:00,
2013-03-20 03:29:00,10.4,5.7,30.33,NNW,333,14.0,14.0,81,0.00,,,0.00,Wunderground v.1.15,2013-03-20 08:29:00,
2013-03-20 03:34:00,10.3,5.9,30.33,NNW,328,14.0,23.0,82,0.00,,,0.00,Wunderground v.1.15,2013-03-20 08:34:00,
2013-03-20 03:40:00,10.3,6.2,30.33,NW,313,11.0,23.0,83,0.00,,,0.00,Wunderground v.1.15,2013-03-20 08:40:00,
2013-03-20 03:42:00,10.2,6.1,30.33,NW,323,11.0,23.0,83,0.00,,,0.00,Wunderground v.1.15,2013-03-20 08:42:00,
2013-03-20 03:46:00,10.2,5.8,30.33,NW,307,10.0,23.0,82,0.00,,,0.00,Wunderground v.1.15,2013-03-20 08:46:00,
2013-03-20 03:48:00,10.2,5.8,30.33,NW,316,11.0,23.0,82,0.00,,,0.00,Wunderground v.1.15,2013-03-20 08:48:00,
2013-03-20 03:51:00,10.1,5.7,30.33,NW,314,12.0,23.0,82,0.00,,,0.00,Wunderground v.1.15,2013-03-20 08:51:00,
2013-03-20 03:58:00,10.0,5.6,30.33,NNW,328,11.0,23.0,82,0.00,,,0.00,Wunderground v.1.15,2013-03-20 08:58:00,
2013-03-20 04:00:00,10.0,5.6,30.33,NW,309,11.0,23.0,82,0.00,,,0.00,Wunderground v.1.15,2013-03-20 09:00:00,
2013-03-20 04:06:00,10.0,5.6,30.33,NW,319,11.0,23.0,82,0.00,,,0.00,Wunderground v.1.15,2013-03-20 09:06:00,
2013-03-20 04:08:00,9.9,5.2,30.33,NW,311,11.0,23.0,81,0.00,,,0.00,Wunderground v.1.15,2013-03-20 09:08:00,
2013-03-20 04:10:00,9.9,5.5,30.33,NW,312,11.0,23.0,82,0.00,,,0.00,Wunderground v.1.15,2013-03-20 09:10:00,
2013-03-20 04:13:00,9.9,5.2,30.33,NW,308,12.0,23.0,81,0.00,,,0.00,Wunderground v.1.15,2013-03-20 09:13:00,
2013-03-20 04:15:00,9.9,5.2,30.33,NW,321,12.0,23.0,81,0.00,,,0.00,Wunderground v.1.15,2013-03-20 09:15:00,
2013-03-20 04:22:00,9.8,5.1,30.33,NW,323,12.0,23.0,81,0.00,,,0.00,Wunderground v.1.15,2013-03-20 09:22:00,
2013-03-20 04:26:00,9.8,5.1,30.33,NW,313,11.0,23.0,81,0.00,,,0.00,Wunderground v.1.15,2013-03-20 09:26:00,
2013-03-20 04:28:00,9.7,5.0,30.33,NW,311,11.0,23.0,81,0.00,,,0.00,Wunderground v.1.15,2013-03-20 09:28:00,
2013-03-20 04:33:00,9.6,4.9,30.33,NW,307,11.0,23.0,81,0.00,,,0.00,Wunderground v.1.15,2013-03-20 09:33:00,
2013-03-20 04:40:00,9.7,5.0,30.34,NW,307,11.0,11.0,81,0.00,,,0.00,Wunderground v.1.15,2013-03-20 09:40:00,
2013-03-20 04:42:00,9.6,4.9,30.34,NW,304,11.0,23.0,81,0.00,,,0.00,Wunderground v.1.15,2013-03-20 09:42:00,
2013-03-20 04:46:00,9.6,4.7,30.34,WNW,300,11.0,23.0,80,0.00,,,0.00,Wunderground v.1.15,2013-03-20 09:46:00,
2013-03-20 04:48:00,9.6,4.7,30.34,WNW,293,11.0,23.0,80,0.00,,,0.00,Wunderground v.1.15,2013-03-20 09:48:00,
2013-03-20 04:54:00,9.6,4.7,30.34,NW,304,12.0,13.0,80,0.00,,,0.00,Wunderground v.1.15,2013-03-20 09:54:00,
2013-03-20 04:55:00,9.5,4.6,30.34,WNW,303,12.0,23.0,80,0.00,,,0.00,Wunderground v.1.15,2013-03-20 09:55:00,
2013-03-20 05:02:00,9.5,4.6,30.34,NW,321,11.0,23.0,80,0.00,,,0.00,Wunderground v.1.15,2013-03-20 10:02:00,
2013-03-20 05:04:00,9.5,4.6,30.34,NW,311,11.0,23.0,80,0.00,,,0.00,Wunderground v.1.15,2013-03-20 10:04:00,
2013-03-20 05:06:00,9.5,4.6,30.34,NW,308,11.0,23.0,80,0.00,,,0.00,Wunderground v.1.15,2013-03-20 10:06:00,
2013-03-20 05:08:00,9.5,4.6,30.34,NW,309,11.0,23.0,80,0.00,,,0.00,Wunderground v.1.15,2013-03-20 10:08:00,
2013-03-20 05:10:00,9.5,4.6,30.34,WNW,300,11.0,23.0,80,0.00,,,0.00,Wunderground v.1.15,2013-03-20 10:10:00,
2013-03-20 05:12:00,9.5,4.6,30.34,NW,311,11.0,23.0,80,0.00,,,0.00,Wunderground v.1.15,2013-03-20 10:12:00,
2013-03-20 05:15:00,9.5,4.6,30.34,NW,315,11.0,23.0,80,0.00,,,0.00,Wunderground v.1.15,2013-03-20 10:15:00,
2013-03-20 05:17:00,9.5,4.8,30.34,WNW,302,11.0,23.0,81,0.00,,,0.00,Wunderground v.1.15,2013-03-20 10:17:00,
2013-03-20 05:19:00,9.5,4.8,30.34,NW,312,10.0,10.0,81,0.00,,,0.00,Wunderground v.1.15,2013-03-20 10:19:00,
2013-03-20 05:24:00,9.5,4.6,30.34,NW,314,10.0,23.0,80,0.00,,,0.00,Wunderground v.1.15,2013-03-20 10:24:00,
2013-03-20 05:26:00,9.5,4.6,30.34,WNW,297,10.0,23.0,80,0.00,,,0.00,Wunderground v.1.15,2013-03-20 10:26:00,
2013-03-20 05:30:00,9.5,4.6,30.34,WNW,291,10.0,23.0,80,0.00,,,0.00,Wunderground v.1.15,2013-03-20 10:30:00,
2013-03-20 05:36:00,9.6,4.7,30.34,NW,316,11.0,23.0,80,0.00,,,0.00,Wunderground v.1.15,2013-03-20 10:36:00,
2013-03-20 05:42:00,9.6,4.7,30.34,NW,307,11.0,23.0,80,0.00,,,0.00,Wunderground v.1.15,2013-03-20 10:42:00,
2013-03-20 05:44:00,9.6,4.7,30.34,NNW,345,11.0,23.0,80,0.00,,,0.00,Wunderground v.1.15,2013-03-20 10:44:00,
2013-03-20 05:48:00,9.6,4.7,30.34,WNW,301,11.0,23.0,80,0.00,,,0.00,Wunderground v.1.15,2013-03-20 10:48:00,
2013-03-20 05:50:00,9.6,4.7,30.34,WNW,300,11.0,11.0,80,0.00,,,0.00,Wunderground v.1.15,2013-03-20 10:50:00,
2013-03-20 05:52:00,9.6,4.7,30.34,NW,311,11.0,23.0,80,0.00,,,0.00,Wunderground v.1.15,2013-03-20 10:52:00,
2013-03-20 05:54:00,9.5,4.6,30.34,NW,316,10.0,23.0,80,0.00,,,0.00,Wunderground v.1.15,2013-03-20 10:54:00,
2013-03-20 05:58:00,9.5,4.6,30.34,WNW,285,10.0,23.0,80,0.00,,,0.00,Wunderground v.1.15,2013-03-20 10:58:00,
2013-03-20 06:00:00,9.5,4.6,30.34,WNW,283,10.0,10.0,80,0.00,,,0.00,Wunderground v.1.15,2013-03-20 11:00:00,
2013-03-20 06:02:00,9.5,4.6,30.34,WNW,294,10.0,23.0,80,0.00,,,0.00,Wunderground v.1.15,2013-03-20 11:02:00,
2013-03-20 06:06:00,9.4,4.5,30.34,NW,309,10.0,23.0,80,0.00,,,0.00,Wunderground v.1.15,2013-03-20 11:06:00,
2013-03-20 06:07:00,9.4,4.7,30.34,NW,309,10.0,23.0,81,0.00,,,0.00,Wunderground v.1.15,2013-03-20 11:07:00,
2013-03-20 06:14:00,9.4,4.7,30.34,NW,321,10.0,23.0,81,0.00,,,0.00,Wunderground v.1.15,2013-03-20 11:14:00,
2013-03-20 06:16:00,9.3,4.6,30.34,WNW,296,11.0,23.0,81,0.00,,,0.00,Wunderground v.1.15,2013-03-20 11:16:00,
2013-03-20 06:22:00,9.3,4.4,30.34,NNW,328,11.0,23.0,80,0.00,,,0.00,Wunderground v.1.15,2013-03-20 11:22:00,
2013-03-20 06:24:00,9.3,4.6,30.34,NW,319,11.0,23.0,81,0.00,,,0.00,Wunderground v.1.15,2013-03-20 11:24:00,
2013-03-20 06:26:00,9.3,4.6,30.35,NW,316,11.0,23.0,81,0.00,,,0.00,Wunderground v.1.15,2013-03-20 11:26:00,
2013-03-20 06:30:00,9.3,4.6,30.35,NW,318,11.0,11.0,81,0.00,,,0.00,Wunderground v.1.15,2013-03-20 11:30:00,
2013-03-20 06:32:00,9.2,4.6,30.35,NW,308,11.0,23.0,81,0.00,,,0.00,Wunderground v.1.15,2013-03-20 11:32:00,
2013-03-20 06:36:00,9.2,4.6,30.35,NNW,330,11.0,23.0,81,0.00,,,0.00,Wunderground v.1.15,2013-03-20 11:36:00,
2013-03-20 06:38:00,9.2,4.6,30.35,NW,321,11.0,23.0,81,0.00,,,0.00,Wunderground v.1.15,2013-03-20 11:38:00,
2013-03-20 06:40:00,9.2,4.6,30.35,NW,321,11.0,11.0,81,0.00,,,0.00,Wunderground v.1.15,2013-03-20 11:40:00,
2013-03-20 06:41:00,9.2,4.6,30.35,NW,314,10.0,23.0,81,0.00,,,0.00,Wunderground v.1.15,2013-03-20 11:41:00,
2013-03-20 06:46:00,9.1,4.5,30.35,NNW,329,10.0,23.0,81,0.00,,,0.00,Wunderground v.1.15,2013-03-20 11:46:00,
2013-03-20 06:48:00,9.1,4.5,30.35,NW,309,10.0,23.0,81,0.00,,,0.00,Wunderground v.1.15,2013-03-20 11:48:00,
2013-03-20 06:51:00,9.1,4.5,30.35,NW,321,10.0,23.0,81,0.00,,,0.00,Wunderground v.1.15,2013-03-20 11:51:00,
2013-03-20 06:53:00,9.1,4.5,30.35,NW,311,10.0,23.0,81,0.00,,,0.00,Wunderground v.1.15,2013-03-20 11:53:00,
2013-03-20 06:58:00,9.0,4.1,30.35,NW,321,11.0,23.0,80,0.00,,,0.00,Wunderground v.1.15,2013-03-20 11:58:00,
2013-03-20 07:00:00,9.0,4.4,30.35,NNW,333,11.0,23.0,81,0.00,,,0.00,Wunderground v.1.15,2013-03-20 12:00:00,
2013-03-20 07:04:00,9.0,4.4,30.35,North,349,12.0,23.0,81,0.00,,,0.00,Wunderground v.1.15,2013-03-20 12:04:00,
2013-03-20 07:06:00,8.9,4.0,30.35,NW,311,12.0,23.0,80,0.00,,,0.00,Wunderground v.1.15,2013-03-20 12:06:00,
2013-03-20 07:09:00,8.9,4.3,30.35,NW,308,12.0,12.0,81,0.00,,,0.00,Wunderground v.1.15,2013-03-20 12:09:00,
2013-03-20 07:12:00,8.9,4.3,30.35,NW,307,12.0,23.0,81,0.00,,,0.00,Wunderground v.1.15,2013-03-20 12:12:00,
2013-03-20 07:18:00,8.9,4.3,30.35,NNW,334,12.0,23.0,81,0.00,,,0.00,Wunderground v.1.15,2013-03-20 12:18:00,
2013-03-20 07:19:00,8.9,4.3,30.35,WNW,297,12.0,23.0,81,0.00,,,0.00,Wunderground v.1.15,2013-03-20 12:19:00,
2013-03-20 07:24:00,8.8,4.2,30.35,NW,316,12.0,23.0,81,0.00,,,0.00,Wunderground v.1.15,2013-03-20 12:24:00,
2013-03-20 07:26:00,8.8,4.2,30.36,WNW,293,12.0,23.0,81,0.00,,,0.00,Wunderground v.1.15,2013-03-20 12:26:00,
2013-03-20 07:30:00,8.7,4.1,30.36,NW,308,11.0,11.0,81,0.00,,,0.00,Wunderground v.1.15,2013-03-20 12:30:00,
2013-03-20 07:32:00,8.7,4.1,30.35,WNW,298,11.0,23.0,81,0.00,,,0.00,Wunderground v.1.15,2013-03-20 12:32:00,
2013-03-20 07:36:00,8.7,4.3,30.36,NW,309,10.0,23.0,82,0.00,,,0.00,Wunderground v.1.15,2013-03-20 12:36:00,
2013-03-20 07:37:00,8.7,4.3,30.36,NNW,330,10.0,23.0,82,0.00,,,0.00,Wunderground v.1.15,2013-03-20 12:37:00,
2013-03-20 07:39:00,8.7,4.1,30.36,NW,323,10.0,23.0,81,0.00,,,0.00,Wunderground v.1.15,2013-03-20 12:39:00,
2013-03-20 07:48:00,8.8,4.2,30.36,NNW,329,11.0,23.0,81,0.00,,,0.00,Wunderground v.1.15,2013-03-20 12:48:00,
2013-03-20 07:50:00,8.9,4.3,30.36,NW,304,11.0,11.0,81,0.00,,,0.00,Wunderground v.1.15,2013-03-20 12:50:00,
2013-03-20 07:54:00,8.9,4.3,30.36,NW,311,10.0,23.0,81,0.00,,,0.00,Wunderground v.1.15,2013-03-20 12:54:00,
2013-03-20 07:56:00,8.9,4.3,30.36,WNW,302,11.0,23.0,81,0.00,,,0.00,Wunderground v.1.15,2013-03-20 12:56:00,
2013-03-20 07:58:00,8.9,4.3,30.36,NW,312,10.0,23.0,81,0.00,,,0.00,Wunderground v.1.15,2013-03-20 12:58:00,
2013-03-20 08:01:00,9.1,4.5,30.35,NW,325,11.0,23.0,81,0.00,,,0.00,Wunderground v.1.15,2013-03-20 13:01:00,
2013-03-20 08:04:00,9.1,4.5,30.35,WNW,301,11.0,23.0,81,0.00,,,0.00,Wunderground v.1.15,2013-03-20 13:04:00,
2013-03-20 08:10:00,9.2,4.6,30.35,WNW,298,9.0,23.0,81,0.00,,,0.00,Wunderground v.1.15,2013-03-20 13:10:00,
2013-03-20 08:14:00,9.3,4.4,30.35,NW,318,10.0,23.0,80,0.00,,,0.00,Wunderground v.1.15,2013-03-20 13:14:00,
2013-03-20 08:16:00,9.4,4.7,30.35,WNW,300,10.0,23.0,81,0.00,,,0.00,Wunderground v.1.15,2013-03-20 13:16:00,
2013-03-20 08:18:00,9.4,4.7,30.35,NW,309,10.0,23.0,81,0.00,,,0.00,Wunderground v.1.15,2013-03-20 13:18:00,
2013-03-20 08:21:00,9.5,4.6,30.35,WNW,303,10.0,23.0,80,0.00,,,0.00,Wunderground v.1.15,2013-03-20 13:21:00,
2013-03-20 08:23:00,9.5,4.6,30.34,NNW,329,10.0,23.0,80,0.00,,,0.00,Wunderground v.1.15,2013-03-20 13:23:00,
2013-03-20 08:28:00,9.7,4.8,30.34,NW,307,11.0,23.0,80,0.00,,,0.00,Wunderground v.1.15,2013-03-20 13:28:00,
2013-03-20 08:30:00,9.8,4.9,30.34,NW,315,11.0,11.0,80,0.00,,,0.00,Wunderground v.1.15,2013-03-20 13:30:00,
2013-03-20 08:36:00,10.1,4.9,30.34,WNW,298,11.0,23.0,79,0.00,,,0.00,Wunderground v.1.15,2013-03-20 13:36:00,
2013-03-20 08:38:00,10.2,5.0,30.34,WNW,301,11.0,23.0,79,0.00,,,0.00,Wunderground v.1.15,2013-03-20 13:38:00,
2013-03-20 08:44:00,10.5,4.7,30.34,NW,308,11.0,23.0,77,0.00,,,0.00,Wunderground v.1.15,2013-03-20 13:44:00,
2013-03-20 08:46:00,10.6,5.1,30.34,NW,321,11.0,23.0,78,0.00,,,0.00,Wunderground v.1.15,2013-03-20 13:46:00,
2013-03-20 08:50:00,10.8,5.0,30.34,NW,308,12.0,23.0,77,0.00,,,0.00,Wunderground v.1.15,2013-03-20 13:50:00,
2013-03-20 08:53:00,10.9,5.1,30.34,NW,316,12.0,23.0,77,0.00,,,0.00,Wunderground v.1.15,2013-03-20 13:53:00,
2013-03-20 08:56:00,11.0,5.2,30.34,NW,318,12.0,23.0,77,0.00,,,0.00,Wunderground v.1.15,2013-03-20 13:56:00,
2013-03-20 08:57:00,11.1,5.3,30.34,WNW,301,11.0,23.0,77,0.00,,,0.00,Wunderground v.1.15,2013-03-20 13:57:00,
2013-03-20 09:02:00,11.3,5.2,30.34,NW,312,11.0,23.0,76,0.00,,,0.00,Wunderground v.1.15,2013-03-20 14:02:00,
2013-03-20 09:04:00,11.4,5.6,30.34,NW,308,11.0,23.0,77,0.00,,,0.00,Wunderground v.1.15,2013-03-20 14:04:00,
2013-03-20 09:06:00,11.5,5.7,30.34,NW,317,11.0,23.0,77,0.00,,,0.00,Wunderground v.1.15,2013-03-20 14:06:00,
2013-03-20 09:10:00,11.7,5.6,30.34,WNW,300,11.0,23.0,76,0.00,,,0.00,Wunderground v.1.15,2013-03-20 14:10:00,
2013-03-20 09:12:00,11.8,5.7,30.34,NW,316,11.0,23.0,76,0.00,,,0.00,Wunderground v.1.15,2013-03-20 14:12:00,
2013-03-20 09:14:00,11.9,5.8,30.34,NW,313,11.0,23.0,76,0.00,,,0.00,Wunderground v.1.15,2013-03-20 14:14:00,
2013-03-20 09:16:00,12.1,6.6,30.34,NW,313,11.0,23.0,78,0.00,,,0.00,Wunderground v.1.15,2013-03-20 14:16:00,
2013-03-20 09:17:00,12.2,6.4,30.34,NW,313,11.0,23.0,77,0.00,,,0.00,Wunderground v.1.15,2013-03-20 14:17:00,
2013-03-20 09:19:00,12.2,5.5,30.34,NNW,330,11.0,23.0,74,0.00,,,0.00,Wunderground v.1.15,2013-03-20 14:19:00,
2013-03-20 09:28:00,12.6,6.2,30.34,NW,317,12.0,23.0,75,0.00,,,0.00,Wunderground v.1.15,2013-03-20 14:28:00,
2013-03-20 09:34:00,12.9,6.2,30.33,NW,321,12.0,23.0,74,0.00,,,0.00,Wunderground v.1.15,2013-03-20 14:34:00,
2013-03-20 09:36:00,12.9,5.9,30.33,NNW,347,13.0,23.0,73,0.00,,,0.00,Wunderground v.1.15,2013-03-20 14:36:00,
2013-03-20 09:42:00,13.4,6.4,30.33,NW,319,13.0,23.0,73,0.00,,,0.00,Wunderground v.1.15,2013-03-20 14:42:00,
2013-03-20 09:44:00,13.4,6.4,30.33,NW,312,13.0,23.0,73,0.00,,,0.00,Wunderground v.1.15,2013-03-20 14:44:00,
2013-03-20 09:47:00,13.4,6.4,30.33,NW,308,13.0,23.0,73,0.00,,,0.00,Wunderground v.1.15,2013-03-20 14:47:00,
2013-03-20 09:52:00,13.5,6.1,30.33,NW,304,14.0,23.0,72,0.00,,,0.00,Wunderground v.1.15,2013-03-20 14:52:00,
2013-03-20 09:54:00,13.7,6.9,30.33,NNW,337,14.0,23.0,74,0.00,,,0.00,Wunderground v.1.15,2013-03-20 14:54:00,
2013-03-20 09:58:00,14.1,7.6,30.33,NW,317,13.0,23.0,75,0.00,,,0.00,Wunderground v.1.15,2013-03-20 14:58:00,
2013-03-20 10:04:00,14.5,7.7,30.33,NNW,333,12.0,23.0,74,0.00,,,0.00,Wunderground v.1.15,2013-03-20 15:04:00,
2013-03-20 10:09:00,14.7,7.6,30.33,NW,314,13.0,23.0,73,0.00,,,0.00,Wunderground v.1.15,2013-03-20 15:09:00,
2013-03-20 10:14:00,14.6,6.9,30.33,NW,308,14.0,23.0,71,0.00,,,0.00,Wunderground v.1.15,2013-03-20 15:14:00,
2013-03-20 10:18:00,14.5,7.1,30.33,NNW,340,14.0,23.0,72,0.00,,,0.00,Wunderground v.1.15,2013-03-20 15:18:00,
2013-03-20 10:19:00,14.6,7.2,30.33,NNW,332,14.0,14.0,72,0.00,,,0.00,Wunderground v.1.15,2013-03-20 15:19:00,
2013-03-20 10:22:00,14.7,7.3,30.33,NW,318,14.0,16.0,72,0.00,,,0.00,Wunderground v.1.15,2013-03-20 15:22:00,
2013-03-20 10:26:00,14.9,6.9,30.33,NNW,334,15.0,23.0,70,0.00,,,0.00,Wunderground v.1.15,2013-03-20 15:26:00,
2013-03-20 10:28:00,15.0,7.3,30.33,North,1,14.0,23.0,71,0.00,,,0.00,Wunderground v.1.15,2013-03-20 15:28:00,
2013-03-20 10:30:00,15.2,7.5,30.33,NW,324,14.0,23.0,71,0.00,,,0.00,Wunderground v.1.15,2013-03-20 15:30:00,
2013-03-20 10:32:00,15.4,8.0,30.32,NW,317,14.0,23.0,72,0.00,,,0.00,Wunderground v.1.15,2013-03-20 15:32:00,
2013-03-20 10:36:00,15.5,7.8,30.32,NNW,333,14.0,23.0,71,0.00,,,0.00,Wunderground v.1.15,2013-03-20 15:36:00,
2013-03-20 10:38:00,15.6,8.2,30.32,NNW,342,14.0,23.0,72,0.00,,,0.00,Wunderground v.1.15,2013-03-20 15:38:00,
2013-03-20 10:40:00,15.8,7.7,30.33,NW,324,14.0,14.0,70,0.00,,,0.00,Wunderground v.1.15,2013-03-20 15:40:00,
2013-03-20 10:42:00,15.9,8.2,30.33,NNW,327,14.0,23.0,71,0.00,,,0.00,Wunderground v.1.15,2013-03-20 15:42:00,
2013-03-20 10:43:00,15.9,8.5,30.33,NW,326,15.0,23.0,72,0.00,,,0.00,Wunderground v.1.15,2013-03-20 15:43:00,
2013-03-20 10:48:00,16.1,8.0,30.33,NNW,330,15.0,23.0,70,0.00,,,0.00,Wunderground v.1.15,2013-03-20 15:48:00,
2013-03-20 10:50:00,16.2,8.8,30.33,NW,322,14.0,14.0,72,0.00,,,0.00,Wunderground v.1.15,2013-03-20 15:50:00,
2013-03-20 10:56:00,16.3,8.2,30.33,NNW,328,14.0,23.0,70,0.00,,,0.00,Wunderground v.1.15,2013-03-20 15:56:00,
2013-03-20 11:00:00,16.9,9.4,30.33,NNW,333,14.0,23.0,72,0.00,,,0.00,Wunderground v.1.15,2013-03-20 16:00:00,
2013-03-20 11:02:00,17.1,9.6,30.33,NW,326,14.0,23.0,72,0.00,,,0.00,Wunderground v.1.15,2013-03-20 16:02:00,
2013-03-20 11:05:00,17.3,9.5,30.33,NW,308,14.0,23.0,71,0.00,,,0.00,Wunderground v.1.15,2013-03-20 16:05:00,
2013-03-20 11:07:00,17.3,9.5,30.33,NW,321,13.0,23.0,71,0.00,,,0.00,Wunderground v.1.15,2013-03-20 16:07:00,
2013-03-20 11:12:00,17.3,8.9,30.33,NW,312,14.0,23.0,69,0.00,,,0.00,Wunderground v.1.15,2013-03-20 16:12:00,
2013-03-20 11:14:00,17.1,8.7,30.33,NW,311,15.0,23.0,69,0.00,,,0.00,Wunderground v.1.15,2013-03-20 16:14:00,
2013-03-20 11:18:00,17.2,9.1,30.32,NW,311,15.0,23.0,70,0.00,,,0.00,Wunderground v.1.15,2013-03-20 16:18:00,
2013-03-20 11:20:00,17.4,10.2,30.32,NW,312,15.0,15.0,73,0.00,,,0.00,Wunderground v.1.15,2013-03-20 16:20:00,
2013-03-20 11:26:00,17.9,10.1,30.32,NNW,328,14.0,23.0,71,0.00,,,0.00,Wunderground v.1.15,2013-03-20 16:26:00,
2013-03-20 11:32:00,18.4,9.9,30.32,NW,320,14.0,16.0,69,0.00,,,0.00,Wunderground v.1.15,2013-03-20 16:32:00,
2013-03-20 11:38:00,18.1,9.0,30.32,NNW,332,16.0,23.0,67,0.00,,,0.00,Wunderground v.1.15,2013-03-20 16:38:00,
2013-03-20 11:40:00,18.0,8.9,30.32,NNW,332,16.0,16.0,67,0.00,,,0.00,Wunderground v.1.15,2013-03-20 16:40:00,
2013-03-20 11:43:00,18.2,9.4,30.31,NW,316,17.0,23.0,68,0.00,,,0.00,Wunderground v.1.15,2013-03-20 16:43:00,
2013-03-20 11:48:00,18.1,9.0,30.31,NNW,329,16.0,23.0,67,0.00,,,0.00,Wunderground v.1.15,2013-03-20 16:48:00,
2013-03-20 11:50:00,18.2,9.4,30.31,NNW,334,16.0,23.0,68,0.00,,,0.00,Wunderground v.1.15,2013-03-20 16:50:00,
2013-03-20 11:52:00,18.6,10.8,30.31,NNW,342,16.0,23.0,71,0.00,,,0.00,Wunderground v.1.15,2013-03-20 16:52:00,
2013-03-20 11:54:00,18.5,10.0,30.31,NW,314,16.0,23.0,69,0.00,,,0.00,Wunderground v.1.15,2013-03-20 16:54:00,
2013-03-20 12:00:00,18.7,10.5,30.31,NW,312,14.0,23.0,70,0.00,,,0.00,Wunderground v.1.15,2013-03-20 17:00:00,
2013-03-20 12:02:00,18.8,10.0,30.31,NW,319,15.0,23.0,68,0.00,,,0.00,Wunderground v.1.15,2013-03-20 17:02:00,
2013-03-20 12:06:00,18.8,9.6,30.30,NNW,332,16.0,23.0,67,0.00,,,0.00,Wunderground v.1.15,2013-03-20 17:06:00,
2013-03-20 12:12:00,19.2,9.7,30.30,NNW,329,16.0,21.0,66,0.00,,,0.00,Wunderground v.1.15,2013-03-20 17:12:00,
2013-03-20 12:13:00,19.3,9.8,30.30,NW,311,16.0,21.0,66,0.00,,,0.00,Wunderground v.1.15,2013-03-20 17:13:00,
2013-03-20 12:20:00,19.9,11.0,30.30,NNW,332,15.0,15.0,68,0.00,,,0.00,Wunderground v.1.15,2013-03-20 17:20:00,
2013-03-20 12:24:00,19.8,10.6,30.30,NNW,334,14.0,20.0,67,0.00,,,0.00,Wunderground v.1.15,2013-03-20 17:24:00,
2013-03-20 12:28:00,19.8,10.6,30.30,WNW,297,14.0,20.0,67,0.00,,,0.00,Wunderground v.1.15,2013-03-20 17:28:00,
2013-03-20 12:30:00,20.0,11.5,30.30,NNW,333,14.0,14.0,69,0.00,,,0.00,Wunderground v.1.15,2013-03-20 17:30:00,
2013-03-20 12:32:00,20.2,11.3,30.30,NW,317,15.0,15.0,68,0.00,,,0.00,Wunderground v.1.15,2013-03-20 17:32:00,
2013-03-20 12:36:00,20.1,10.9,30.30,WNW,301,15.0,19.0,67,0.00,,,0.00,Wunderground v.1.15,2013-03-20 17:36:00,
2013-03-20 12:41:00,20.5,11.6,30.29,NW,321,15.0,18.0,68,0.00,,,0.00,Wunderground v.1.15,2013-03-20 17:41:00,
2013-03-20 12:44:00,20.4,10.8,30.29,NW,309,15.0,18.0,66,0.00,,,0.00,Wunderground v.1.15,2013-03-20 17:44:00,
2013-03-20 12:48:00,20.5,11.3,30.29,NW,312,15.0,18.0,67,0.00,,,0.00,Wunderground v.1.15,2013-03-20 17:48:00,
2013-03-20 12:50:00,20.6,11.7,30.29,NNW,333,15.0,16.0,68,0.00,,,0.00,Wunderground v.1.15,2013-03-20 17:50:00,
2013-03-20 12:54:00,20.4,11.2,30.29,WNW,293,15.0,20.0,67,0.00,,,0.00,Wunderground v.1.15,2013-03-20 17:54:00,
2013-03-20 12:56:00,20.4,11.2,30.29,NW,319,16.0,20.0,67,0.00,,,0.00,Wunderground v.1.15,2013-03-20 17:56:00,
2013-03-20 12:59:00,20.5,11.6,30.28,NW,311,16.0,16.0,68,0.00,,,0.00,Wunderground v.1.15,2013-03-20 17:59:00,
2013-03-20 13:02:00,20.6,11.7,30.28,WNW,300,16.0,18.0,68,0.00,,,0.00,Wunderground v.1.15,2013-03-20 18:02:00,
2013-03-20 13:08:00,20.9,12.6,30.28,NW,318,15.0,23.0,70,0.00,,,0.00,Wunderground v.1.15,2013-03-20 18:08:00,
2013-03-20 13:12:00,20.9,12.0,30.28,NW,314,16.0,23.0,68,0.00,,,0.00,Wunderground v.1.15,2013-03-20 18:12:00,
2013-03-20 13:14:00,20.9,12.0,30.28,NNW,342,15.0,23.0,68,0.00,,,0.00,Wunderground v.1.15,2013-03-20 18:14:00,
2013-03-20 13:19:00,21.1,11.8,30.28,NW,326,14.0,14.0,67,0.00,,,0.00,Wunderground v.1.15,2013-03-20 18:19:00,
2013-03-20 13:22:00,21.3,13.0,30.27,NW,312,14.0,23.0,70,0.00,,,0.00,Wunderground v.1.15,2013-03-20 18:22:00,
2013-03-20 13:26:00,21.1,11.8,30.27,WNW,302,15.0,23.0,67,0.00,,,0.00,Wunderground v.1.15,2013-03-20 18:26:00,
2013-03-20 13:27:00,21.1,11.8,30.27,NW,318,15.0,23.0,67,0.00,,,0.00,Wunderground v.1.15,2013-03-20 18:27:00,
2013-03-20 13:29:00,21.2,11.9,30.27,WNW,295,15.0,15.0,67,0.00,,,0.00,Wunderground v.1.15,2013-03-20 18:29:00,
2013-03-20 13:34:00,21.2,11.6,30.27,WNW,302,16.0,23.0,66,0.00,,,0.00,Wunderground v.1.15,2013-03-20 18:34:00,
2013-03-20 13:36:00,21.2,11.3,30.27,NNW,333,16.0,23.0,65,0.00,,,0.00,Wunderground v.1.15,2013-03-20 18:36:00,
2013-03-20 13:40:00,21.3,11.7,30.27,NW,326,15.0,15.0,66,0.00,,,0.00,Wunderground v.1.15,2013-03-20 18:40:00,
2013-03-20 13:42:00,21.5,12.2,30.27,NNW,330,15.0,23.0,67,0.00,,,0.00,Wunderground v.1.15,2013-03-20 18:42:00,
2013-03-20 13:44:00,21.6,12.0,30.27,NNW,333,15.0,23.0,66,0.00,,,0.00,Wunderground v.1.15,2013-03-20 18:44:00,
2013-03-20 13:46:00,21.5,11.2,30.26,WNW,297,14.0,23.0,64,0.00,,,0.00,Wunderground v.1.15,2013-03-20 18:46:00,
2013-03-20 13:49:00,21.7,12.1,30.26,WNW,293,15.0,23.0,66,0.00,,,0.00,Wunderground v.1.15,2013-03-20 18:49:00,
2013-03-20 13:54:00,21.6,11.3,30.26,NW,309,15.0,23.0,64,0.00,,,0.00,Wunderground v.1.15,2013-03-20 18:54:00,
2013-03-20 13:56:00,21.7,12.1,30.26,NW,311,15.0,23.0,66,0.00,,,0.00,Wunderground v.1.15,2013-03-20 18:56:00,
2013-03-20 14:00:00,21.7,11.4,30.26,NW,318,15.0,23.0,64,0.00,,,0.00,Wunderground v.1.15,2013-03-20 19:00:00,
2013-03-20 14:06:00,21.9,12.3,30.25,WNW,291,15.0,23.0,66,0.00,,,0.00,Wunderground v.1.15,2013-03-20 19:06:00,
2013-03-20 14:07:00,21.9,12.6,30.26,NW,315,15.0,23.0,67,0.00,,,0.00,Wunderground v.1.15,2013-03-20 19:07:00,
2013-03-20 14:14:00,21.6,11.3,30.26,NNW,334,14.0,23.0,64,0.00,,,0.00,Wunderground v.1.15,2013-03-20 19:14:00,
2013-03-20 14:16:00,21.7,12.1,30.26,NNW,339,14.0,23.0,66,0.00,,,0.00,Wunderground v.1.15,2013-03-20 19:16:00,
2013-03-20 14:20:00,21.9,11.9,30.25,NW,311,14.0,23.0,65,0.00,,,0.00,Wunderground v.1.15,2013-03-20 19:20:00,
2013-03-20 14:22:00,22.1,12.1,30.25,NW,314,14.0,23.0,65,0.00,,,0.00,Wunderground v.1.15,2013-03-20 19:22:00,
2013-03-20 14:27:00,22.0,12.0,30.25,WNW,294,14.0,23.0,65,0.00,,,0.00,Wunderground v.1.15,2013-03-20 19:27:00,
2013-03-20 14:34:00,22.3,12.3,30.25,NW,305,14.0,23.0,65,0.00,,,0.00,Wunderground v.1.15,2013-03-20 19:34:00,
2013-03-20 14:38:00,22.3,11.6,30.25,NNW,333,14.0,23.0,63,0.00,,,0.00,Wunderground v.1.15,2013-03-20 19:38:00,
2013-03-20 14:40:00,22.3,11.6,30.25,NNW,334,14.0,14.0,63,0.00,,,0.00,Wunderground v.1.15,2013-03-20 19:40:00,
2013-03-20 14:42:00,22.4,12.8,30.25,NNW,332,14.0,23.0,66,0.00,,,0.00,Wunderground v.1.15,2013-03-20 19:42:00,
2013-03-20 14:46:00,22.0,11.7,30.24,NW,321,14.0,23.0,64,0.00,,,0.00,Wunderground v.1.15,2013-03-20 19:46:00,
2013-03-20 14:48:00,22.0,12.0,30.24,NW,319,14.0,23.0,65,0.00,,,0.00,Wunderground v.1.15,2013-03-20 19:48:00,
2013-03-20 14:54:00,22.2,11.5,30.24,NNW,345,14.0,23.0,63,0.00,,,0.00,Wunderground v.1.15,2013-03-20 19:54:00,
2013-03-20 14:58:00,22.2,11.9,30.23,NNW,335,14.0,23.0,64,0.00,,,0.00,Wunderground v.1.15,2013-03-20 19:58:00,
2013-03-20 15:00:00,22.2,11.9,30.23,NNW,343,14.0,14.0,64,0.00,,,0.00,Wunderground v.1.15,2013-03-20 20:00:00,
2013-03-20 15:04:00,22.1,12.1,30.23,WNW,300,14.0,23.0,65,0.00,,,0.00,Wunderground v.1.15,2013-03-20 20:04:00,
2013-03-20 15:06:00,22.4,13.8,30.23,WNW,293,14.0,23.0,69,0.00,,,0.00,Wunderground v.1.15,2013-03-20 20:06:00,
2013-03-20 15:10:00,22.3,12.7,30.23,NNW,342,13.0,23.0,66,0.00,,,0.00,Wunderground v.1.15,2013-03-20 20:10:00,
2013-03-20 15:12:00,22.4,12.8,30.23,NNW,330,12.0,23.0,66,0.00,,,0.00,Wunderground v.1.15,2013-03-20 20:12:00,
2013-03-20 15:16:00,23.1,13.8,30.23,NNW,334,12.0,23.0,67,0.00,,,0.00,Wunderground v.1.15,2013-03-20 20:16:00,
2013-03-20 15:19:00,22.5,12.5,30.23,NW,324,13.0,13.0,65,0.00,,,0.00,Wunderground v.1.15,2013-03-20 20:19:00,
2013-03-20 15:24:00,22.7,12.7,30.22,North,352,13.0,23.0,65,0.00,,,0.00,Wunderground v.1.15,2013-03-20 20:24:00,
2013-03-20 15:26:00,22.6,11.9,30.22,North,7,13.0,23.0,63,0.00,,,0.00,Wunderground v.1.15,2013-03-20 20:26:00,
2013-03-20 15:27:00,22.5,12.1,30.22,NW,305,13.0,23.0,64,0.00,,,0.00,Wunderground v.1.15,2013-03-20 20:27:00,
2013-03-20 15:29:00,22.5,12.1,30.22,NNW,332,14.0,14.0,64,0.00,,,0.00,Wunderground v.1.15,2013-03-20 20:29:00,
2013-03-20 15:34:00,22.4,12.4,30.22,NW,317,14.0,23.0,65,0.00,,,0.00,Wunderground v.1.15,2013-03-20 20:34:00,
2013-03-20 15:36:00,22.5,12.5,30.22,NW,313,14.0,23.0,65,0.00,,,0.00,Wunderground v.1.15,2013-03-20 20:36:00,
2013-03-20 15:38:00,22.7,13.4,30.22,NNW,342,13.0,23.0,67,0.00,,,0.00,Wunderground v.1.15,2013-03-20 20:38:00,
2013-03-20 15:42:00,22.1,12.5,30.22,NW,311,13.0,23.0,66,0.00,,,0.00,Wunderground v.1.15,2013-03-20 20:42:00,
2013-03-20 15:44:00,21.8,11.8,30.22,NW,316,13.0,23.0,65,0.00,,,0.00,Wunderground v.1.15,2013-03-20 20:44:00,
2013-03-20 15:46:00,21.8,11.8,30.22,NW,317,13.0,23.0,65,0.00,,,0.00,Wunderground v.1.15,2013-03-20 20:46:00,
2013-03-20 15:53:00,22.0,12.7,30.22,NW,321,13.0,23.0,67,0.00,,,0.00,Wunderground v.1.15,2013-03-20 20:53:00,
2013-03-20 15:55:00,22.0,11.7,30.22,NW,310,13.0,23.0,64,0.00,,,0.00,Wunderground v.1.15,2013-03-20 20:55:00,
2013-03-20 15:59:00,22.3,13.0,30.22,NW,314,12.0,23.0,67,0.00,,,0.00,Wunderground v.1.15,2013-03-20 20:59:00,
2013-03-20 16:04:00,22.6,12.9,30.21,NW,323,12.0,23.0,66,0.00,,,0.00,Wunderground v.1.15,2013-03-20 21:04:00,
2013-03-20 16:08:00,22.5,12.5,30.21,NW,315,12.0,23.0,65,0.00,,,0.00,Wunderground v.1.15,2013-03-20 21:08:00,
2013-03-20 16:10:00,22.3,12.7,30.21,NNW,342,12.0,23.0,66,0.00,,,0.00,Wunderground v.1.15,2013-03-20 21:10:00,
2013-03-20 16:14:00,22.2,12.2,30.21,NNW,329,12.0,23.0,65,0.00,,,0.00,Wunderground v.1.15,2013-03-20 21:14:00,
2013-03-20 16:15:00,22.6,12.9,30.21,NNW,338,12.0,23.0,66,0.00,,,0.00,Wunderground v.1.15,2013-03-20 21:15:00,
2013-03-20 16:22:00,22.5,13.2,30.21,NNW,328,12.0,14.0,67,0.00,,,0.00,Wunderground v.1.15,2013-03-20 21:22:00,
2013-03-20 16:26:00,22.6,12.9,30.20,NNW,328,11.0,23.0,66,0.00,,,0.00,Wunderground v.1.15,2013-03-20 21:26:00,
2013-03-20 16:28:00,22.9,13.2,30.20,WNW,302,12.0,23.0,66,0.00,,,0.00,Wunderground v.1.15,2013-03-20 21:28:00,
2013-03-20 16:31:00,23.6,14.2,30.20,WNW,302,13.0,23.0,67,0.00,,,0.00,Wunderground v.1.15,2013-03-20 21:31:00,
2013-03-20 16:34:00,23.8,13.7,30.20,NNW,330,13.0,23.0,65,0.00,,,0.00,Wunderground v.1.15,2013-03-20 21:34:00,
2013-03-20 16:36:00,24.0,13.9,30.20,NW,314,14.0,23.0,65,0.00,,,0.00,Wunderground v.1.15,2013-03-20 21:36:00,
2013-03-20 16:39:00,23.9,13.5,30.20,NW,326,13.0,23.0,64,0.00,,,0.00,Wunderground v.1.15,2013-03-20 21:39:00,
2013-03-20 16:44:00,23.5,13.1,30.20,North,354,13.0,23.0,64,0.00,,,0.00,Wunderground v.1.15,2013-03-20 21:44:00,
2013-03-20 16:48:00,23.5,12.4,30.20,NW,319,12.0,23.0,62,0.00,,,0.00,Wunderground v.1.15,2013-03-20 21:48:00,
2013-03-20 16:50:00,23.4,13.0,30.20,NW,319,12.0,23.0,64,0.00,,,0.00,Wunderground v.1.15,2013-03-20 21:50:00,
2013-03-20 16:52:00,23.6,13.5,30.20,NW,305,12.0,23.0,65,0.00,,,0.00,Wunderground v.1.15,2013-03-20 21:52:00,
2013-03-20 16:54:00,23.7,13.6,30.20,NW,321,13.0,23.0,65,0.00,,,0.00,Wunderground v.1.15,2013-03-20 21:54:00,
2013-03-20 16:58:00,23.5,13.8,30.20,NNW,339,12.0,23.0,66,0.00,,,0.00,Wunderground v.1.15,2013-03-20 21:58:00,
2013-03-20 16:59:00,23.3,12.9,30.20,NW,316,12.0,12.0,64,0.00,,,0.00,Wunderground v.1.15,2013-03-20 21:59:00,
2013-03-20 17:05:00,23.2,13.2,30.20,NNW,333,12.0,23.0,65,0.00,,,0.00,Wunderground v.1.15,2013-03-20 22:05:00,
2013-03-20 17:10:00,23.0,12.6,30.20,NW,319,13.0,23.0,64,0.00,,,0.00,Wunderground v.1.15,2013-03-20 22:10:00,
2013-03-20 17:12:00,23.1,12.7,30.20,NW,321,13.0,23.0,64,0.00,,,0.00,Wunderground v.1.15,2013-03-20 22:12:00,
2013-03-20 17:18:00,23.2,12.8,30.20,NNW,334,13.0,23.0,64,0.00,,,0.00,Wunderground v.1.15,2013-03-20 22:18:00,
2013-03-20 17:20:00,23.3,12.6,30.20,NW,324,13.0,23.0,63,0.00,,,0.00,Wunderground v.1.15,2013-03-20 22:20:00,
2013-03-20 17:26:00,23.2,12.8,30.19,NW,316,13.0,23.0,64,0.00,,,0.00,Wunderground v.1.15,2013-03-20 22:26:00,
2013-03-20 17:28:00,23.3,13.3,30.19,NW,312,13.0,23.0,65,0.00,,,0.00,Wunderground v.1.15,2013-03-20 22:28:00,
2013-03-20 17:33:00,23.3,12.2,30.19,NW,318,12.0,23.0,62,0.00,,,0.00,Wunderground v.1.15,2013-03-20 22:33:00,
2013-03-20 17:40:00,23.2,12.1,30.19,NNW,332,12.0,23.0,62,0.00,,,0.00,Wunderground v.1.15,2013-03-20 22:40:00,
2013-03-20 17:44:00,23.1,12.7,30.19,NW,316,12.0,23.0,64,0.00,,,0.00,Wunderground v.1.15,2013-03-20 22:44:00,
2013-03-20 17:46:00,23.1,13.1,30.19,NW,312,12.0,23.0,65,0.00,,,0.00,Wunderground v.1.15,2013-03-20 22:46:00,
2013-03-20 17:50:00,23.1,12.7,30.19,NW,326,11.0,23.0,64,0.00,,,0.00,Wunderground v.1.15,2013-03-20 22:50:00,
2013-03-20 17:52:00,23.1,12.7,30.19,NNW,334,11.0,23.0,64,0.00,,,0.00,Wunderground v.1.15,2013-03-20 22:52:00,
2013-03-20 17:55:00,23.1,12.4,30.19,NNW,342,12.0,23.0,63,0.00,,,0.00,Wunderground v.1.15,2013-03-20 22:55:00,
2013-03-20 18:02:00,22.6,11.9,30.19,NW,326,11.0,23.0,63,0.00,,,0.00,Wunderground v.1.15,2013-03-20 23:02:00,
2013-03-20 18:04:00,22.5,11.8,30.19,NNW,343,11.0,23.0,63,0.00,,,0.00,Wunderground v.1.15,2013-03-20 23:04:00,
2013-03-20 18:06:00,22.7,12.3,30.19,NNW,332,11.0,23.0,64,0.00,,,0.00,Wunderground v.1.15,2013-03-20 23:06:00,
2013-03-20 18:10:00,22.6,12.2,30.19,NNW,333,11.0,23.0,64,0.00,,,0.00,Wunderground v.1.15,2013-03-20 23:10:00,
2013-03-20 18:12:00,22.6,12.2,30.18,NW,315,10.0,23.0,64,0.00,,,0.00,Wunderground v.1.15,2013-03-20 23:12:00,
2013-03-20 18:14:00,22.6,12.2,30.19,NW,315,10.0,23.0,64,0.00,,,0.00,Wunderground v.1.15,2013-03-20 23:14:00,
2013-03-20 18:18:00,22.5,12.1,30.19,NW,306,11.0,23.0,64,0.00,,,0.00,Wunderground v.1.15,2013-03-20 23:18:00,
2013-03-20 18:20:00,22.2,11.9,30.19,NW,319,11.0,11.0,64,0.00,,,0.00,Wunderground v.1.15,2013-03-20 23:20:00,
2013-03-20 18:24:00,22.0,11.7,30.19,NW,316,12.0,23.0,64,0.00,,,0.00,Wunderground v.1.15,2013-03-20 23:24:00,
2013-03-20 18:28:00,22.1,12.1,30.19,NW,326,11.0,23.0,65,0.00,,,0.00,Wunderground v.1.15,2013-03-20 23:28:00,
2013-03-20 18:29:00,22.1,11.8,30.19,NNW,332,11.0,23.0,64,0.00,,,0.00,Wunderground v.1.15,2013-03-20 23:29:00,
2013-03-20 18:34:00,21.9,11.9,30.19,NNW,327,11.0,23.0,65,0.00,,,0.00,Wunderground v.1.15,2013-03-20 23:34:00,
2013-03-20 18:39:00,21.7,11.4,30.18,NNW,333,11.0,11.0,64,0.00,,,0.00,Wunderground v.1.15,2013-03-20 23:39:00,
2013-03-20 18:44:00,21.7,12.1,30.18,NNW,330,11.0,23.0,66,0.00,,,0.00,Wunderground v.1.15,2013-03-20 23:44:00,
2013-03-20 18:46:00,21.7,12.1,30.18,NNW,343,11.0,23.0,66,0.00,,,0.00,Wunderground v.1.15,2013-03-20 23:46:00,
2013-03-20 18:52:00,21.6,12.0,30.18,NW,326,11.0,23.0,66,0.00,,,0.00,Wunderground v.1.15,2013-03-20 23:52:00,
2013-03-20 18:54:00,21.6,12.0,30.18,North,350,11.0,23.0,66,0.00,,,0.00,Wunderground v.1.15,2013-03-20 23:54:00,
2013-03-20 18:56:00,21.5,11.5,30.18,North,1,11.0,23.0,65,0.00,,,0.00,Wunderground v.1.15,2013-03-20 23:56:00,
2013-03-20 19:01:00,21.3,11.7,30.18,North,8,10.0,23.0,66,0.00,,,0.00,Wunderground v.1.15,2013-03-21 00:01:00,
2013-03-20 19:06:00,21.0,11.4,30.17,NNW,338,10.0,23.0,66,0.00,,,0.00,Wunderground v.1.15,2013-03-21 00:06:00,
2013-03-20 19:08:00,20.9,11.3,30.17,NNW,344,10.0,23.0,66,0.00,,,0.00,Wunderground v.1.15,2013-03-21 00:08:00,
2013-03-20 19:14:00,20.6,11.0,30.17,NW,322,10.0,23.0,66,0.00,,,0.00,Wunderground v.1.15,2013-03-21 00:14:00,
2013-03-20 19:16:00,20.4,10.8,30.17,NNW,335,10.0,23.0,66,0.00,,,0.00,Wunderground v.1.15,2013-03-21 00:16:00,
2013-03-20 19:22:00,20.1,10.9,30.17,NNW,336,9.0,23.0,67,0.00,,,0.00,Wunderground v.1.15,2013-03-21 00:22:00,
2013-03-20 19:25:00,19.8,10.6,30.17,NNW,330,9.0,23.0,67,0.00,,,0.00,Wunderground v.1.15,2013-03-21 00:25:00,
2013-03-20 19:27:00,19.7,10.8,30.18,NW,321,9.0,23.0,68,0.00,,,0.00,Wunderground v.1.15,2013-03-21 00:27:00,
2013-03-20 19:32:00,19.4,10.6,30.17,NNW,338,9.0,11.0,68,0.00,,,0.00,Wunderground v.1.15,2013-03-21 00:32:00,
2013-03-20 19:34:00,19.3,10.5,30.17,NW,321,9.0,23.0,68,0.00,,,0.00,Wunderground v.1.15,2013-03-21 00:34:00,
2013-03-20 19:36:00,19.3,10.5,30.18,NNW,335,9.0,23.0,68,0.00,,,0.00,Wunderground v.1.15,2013-03-21 00:36:00,
2013-03-20 19:42:00,18.9,10.4,30.17,North,355,8.0,23.0,69,0.00,,,0.00,Wunderground v.1.15,2013-03-21 00:42:00,
2013-03-20 19:44:00,18.8,10.6,30.17,NW,313,8.0,23.0,70,0.00,,,0.00,Wunderground v.1.15,2013-03-21 00:44:00,
2013-03-20 19:46:00,18.8,10.9,30.17,NNW,333,8.0,23.0,71,0.00,,,0.00,Wunderground v.1.15,2013-03-21 00:46:00,
2013-03-20 19:48:00,18.7,10.9,30.17,NNW,342,8.0,23.0,71,0.00,,,0.00,Wunderground v.1.15,2013-03-21 00:48:00,
2013-03-20 19:52:00,18.5,11.0,30.17,NNW,329,7.0,23.0,72,0.00,,,0.00,Wunderground v.1.15,2013-03-21 00:52:00,
2013-03-20 19:54:00,18.5,10.7,30.17,NNW,333,7.0,23.0,71,0.00,,,0.00,Wunderground v.1.15,2013-03-21 00:54:00,
2013-03-20 19:56:00,18.5,11.0,30.17,North,353,7.0,23.0,72,0.00,,,0.00,Wunderground v.1.15,2013-03-21 00:56:00,
2013-03-20 19:58:00,18.3,10.8,30.17,NW,317,7.0,23.0,72,0.00,,,0.00,Wunderground v.1.15,2013-03-21 00:58:00,
2013-03-20 20:02:00,18.2,10.7,30.17,NNW,345,8.0,23.0,72,0.00,,,0.00,Wunderground v.1.15,2013-03-21 01:02:00,
2013-03-20 20:05:00,18.1,10.6,30.17,NNW,327,7.0,23.0,72,0.00,,,0.00,Wunderground v.1.15,2013-03-21 01:05:00,
2013-03-20 20:10:00,18.0,10.8,30.17,NNW,345,7.0,23.0,73,0.00,,,0.00,Wunderground v.1.15,2013-03-21 01:10:00,
2013-03-20 20:12:00,17.9,10.7,30.17,NNW,333,7.0,23.0,73,0.00,,,0.00,Wunderground v.1.15,2013-03-21 01:12:00,
2013-03-20 20:18:00,17.7,10.2,30.17,NW,322,6.0,23.0,72,0.00,,,0.00,Wunderground v.1.15,2013-03-21 01:18:00,
2013-03-20 20:20:00,17.6,10.4,30.17,NNW,328,6.0,23.0,73,0.00,,,0.00,Wunderground v.1.15,2013-03-21 01:20:00,
2013-03-20 20:24:00,17.4,10.2,30.17,NNW,346,6.0,23.0,73,0.00,,,0.00,Wunderground v.1.15,2013-03-21 01:24:00,
2013-03-20 20:29:00,17.1,10.2,30.17,NW,324,6.0,23.0,74,0.00,,,0.00,Wunderground v.1.15,2013-03-21 01:29:00,
2013-03-20 20:31:00,17.1,10.2,30.16,NNW,336,6.0,23.0,74,0.00,,,0.00,Wunderground v.1.15,2013-03-21 01:31:00,
2013-03-20 20:36:00,17.0,10.1,30.17,NW,320,6.0,23.0,74,0.00,,,0.00,Wunderground v.1.15,2013-03-21 01:36:00,
2013-03-20 20:37:00,17.0,10.1,30.17,NNW,338,6.0,23.0,74,0.00,,,0.00,Wunderground v.1.15,2013-03-21 01:37:00,
2013-03-20 20:39:00,16.9,10.0,30.17,NNW,340,7.0,23.0,74,0.00,,,0.00,Wunderground v.1.15,2013-03-21 01:39:00,
2013-03-20 20:44:00,16.9,10.0,30.17,NNW,338,6.0,23.0,74,0.00,,,0.00,Wunderground v.1.15,2013-03-21 01:44:00,
2013-03-20 20:46:00,16.8,9.9,30.17,NNW,342,6.0,23.0,74,0.00,,,0.00,Wunderground v.1.15,2013-03-21 01:46:00,
2013-03-20 20:50:00,16.7,9.8,30.17,NNE,23,6.0,23.0,74,0.00,,,0.00,Wunderground v.1.15,2013-03-21 01:50:00,
2013-03-20 20:52:00,16.6,9.8,30.17,NNW,344,6.0,23.0,74,0.00,,,0.00,Wunderground v.1.15,2013-03-21 01:52:00,
2013-03-20 20:56:00,16.6,9.8,30.17,NNW,338,7.0,23.0,74,0.00,,,0.00,Wunderground v.1.15,2013-03-21 01:56:00,
2013-03-20 21:02:00,16.4,9.9,30.17,NNW,334,6.0,23.0,75,0.00,,,0.00,Wunderground v.1.15,2013-03-21 02:02:00,
2013-03-20 21:05:00,16.3,10.1,30.17,NW,324,6.0,23.0,76,0.00,,,0.00,Wunderground v.1.15,2013-03-21 02:05:00,
2013-03-20 21:08:00,16.2,10.0,30.17,NNW,340,6.0,23.0,76,0.00,,,0.00,Wunderground v.1.15,2013-03-21 02:08:00,
2013-03-20 21:10:00,16.1,9.9,30.17,NNW,348,6.0,23.0,76,0.00,,,0.00,Wunderground v.1.15,2013-03-21 02:10:00,
2013-03-20 21:12:00,16.1,9.9,30.17,NNW,342,6.0,23.0,76,0.00,,,0.00,Wunderground v.1.15,2013-03-21 02:12:00,
2013-03-20 21:14:00,16.0,9.8,30.17,NNW,335,6.0,23.0,76,0.00,,,0.00,Wunderground v.1.15,2013-03-21 02:14:00,
2013-03-20 21:16:00,15.9,9.7,30.17,NNW,333,6.0,23.0,76,0.00,,,0.00,Wunderground v.1.15,2013-03-21 02:16:00,
2013-03-20 21:18:00,15.8,9.6,30.17,NNW,332,6.0,23.0,76,0.00,,,0.00,Wunderground v.1.15,2013-03-21 02:18:00,
2013-03-20 21:22:00,15.8,9.6,30.17,NNW,344,5.0,23.0,76,0.00,,,0.00,Wunderground v.1.15,2013-03-21 02:22:00,
2013-03-20 21:24:00,15.7,9.5,30.17,North,356,5.0,23.0,76,0.00,,,0.00,Wunderground v.1.15,2013-03-21 02:24:00,
2013-03-20 21:27:00,15.6,9.7,30.17,North,352,5.0,23.0,77,0.00,,,0.00,Wunderground v.1.15,2013-03-21 02:27:00,
2013-03-20 21:30:00,15.5,9.6,30.17,North,360,5.0,23.0,77,0.00,,,0.00,Wunderground v.1.15,2013-03-21 02:30:00,
2013-03-20 21:34:00,15.4,9.8,30.17,NNW,338,5.0,23.0,78,0.00,,,0.00,Wunderground v.1.15,2013-03-21 02:34:00,
2013-03-20 21:35:00,15.4,10.1,30.17,NNW,342,5.0,23.0,79,0.00,,,0.00,Wunderground v.1.15,2013-03-21 02:35:00,
2013-03-20 21:42:00,15.1,9.8,30.17,North,349,4.0,23.0,79,0.00,,,0.00,Wunderground v.1.15,2013-03-21 02:42:00,
2013-03-20 21:46:00,14.9,9.6,30.17,North,360,4.0,23.0,79,0.00,,,0.00,Wunderground v.1.15,2013-03-21 02:46:00,
2013-03-20 21:48:00,14.9,9.8,30.17,North,360,4.0,23.0,80,0.00,,,0.00,Wunderground v.1.15,2013-03-21 02:48:00,
2013-03-20 21:52:00,14.9,9.8,30.17,North,6,5.0,23.0,80,0.00,,,0.00,Wunderground v.1.15,2013-03-21 02:52:00,
2013-03-20 21:56:00,14.8,9.7,30.17,NNE,24,5.0,23.0,80,0.00,,,0.00,Wunderground v.1.15,2013-03-21 02:56:00,
2013-03-20 21:59:00,14.7,9.6,30.17,North,359,5.0,23.0,80,0.00,,,0.00,Wunderground v.1.15,2013-03-21 02:59:00,
2013-03-20 22:02:00,14.8,9.7,30.17,NNW,344,5.0,23.0,80,0.00,,,0.00,Wunderground v.1.15,2013-03-21 03:02:00,
2013-03-20 22:04:00,14.8,9.7,30.17,NNE,13,6.0,23.0,80,0.00,,,0.00,Wunderground v.1.15,2013-03-21 03:04:00,
2013-03-20 22:07:00,14.9,9.6,30.17,NNE,13,8.0,23.0,79,0.00,,,0.00,Wunderground v.1.15,2013-03-21 03:07:00,
2013-03-20 22:14:00,14.9,9.3,30.17,NNW,339,8.0,23.0,78,0.00,,,0.00,Wunderground v.1.15,2013-03-21 03:14:00,
2013-03-20 22:16:00,14.8,9.2,30.17,North,354,8.0,23.0,78,0.00,,,0.00,Wunderground v.1.15,2013-03-21 03:16:00,
2013-03-20 22:20:00,14.8,9.2,30.17,North,9,7.0,23.0,78,0.00,,,0.00,Wunderground v.1.15,2013-03-21 03:20:00,
2013-03-20 22:22:00,14.8,9.2,30.17,North,7,7.0,23.0,78,0.00,,,0.00,Wunderground v.1.15,2013-03-21 03:22:00,
2013-03-20 22:24:00,14.8,9.2,30.17,North,349,7.0,23.0,78,0.00,,,0.00,Wunderground v.1.15,2013-03-21 03:24:00,
2013-03-20 22:26:00,14.7,9.1,30.17,North,352,8.0,23.0,78,0.00,,,0.00,Wunderground v.1.15,2013-03-21 03:26:00,
2013-03-20 22:30:00,14.7,9.4,30.18,North,349,8.0,23.0,79,0.00,,,0.00,Wunderground v.1.15,2013-03-21 03:30:00,
2013-03-20 22:32:00,14.7,9.4,30.17,NNW,342,8.0,23.0,79,0.00,,,0.00,Wunderground v.1.15,2013-03-21 03:32:00,
2013-03-20 22:33:00,14.6,9.3,30.17,North,3,8.0,23.0,79,0.00,,,0.00,Wunderground v.1.15,2013-03-21 03:33:00,
2013-03-20 22:38:00,14.4,9.1,30.17,North,356,7.0,23.0,79,0.00,,,0.00,Wunderground v.1.15,2013-03-21 03:38:00,
2013-03-20 22:40:00,14.4,9.1,30.17,North,355,7.0,23.0,79,0.00,,,0.00,Wunderground v.1.15,2013-03-21 03:40:00,
2013-03-20 22:46:00,14.2,8.9,30.18,NNW,342,6.0,23.0,79,0.00,,,0.00,Wunderground v.1.15,2013-03-21 03:46:00,
2013-03-20 22:52:00,14.1,8.8,30.18,North,357,5.0,23.0,79,0.00,,,0.00,Wunderground v.1.15,2013-03-21 03:52:00,
2013-03-20 22:57:00,13.7,8.7,30.18,North,6,3.0,23.0,80,0.00,,,0.00,Wunderground v.1.15,2013-03-21 03:57:00,
2013-03-20 23:00:00,13.6,8.6,30.18,NNW,327,3.0,23.0,80,0.00,,,0.00,Wunderground v.1.15,2013-03-21 04:00:00,
2013-03-20 23:02:00,13.5,8.5,30.18,NNW,345,3.0,23.0,80,0.00,,,0.00,Wunderground v.1.15,2013-03-21 04:02:00,
2013-03-20 23:08:00,13.4,8.9,30.17,North,11,5.0,23.0,82,0.00,,,0.00,Wunderground v.1.15,2013-03-21 04:08:00,
2013-03-20 23:12:00,13.4,9.2,30.17,NNE,23,5.0,23.0,83,0.00,,,0.00,Wunderground v.1.15,2013-03-21 04:12:00,
2013-03-20 23:16:00,13.3,9.1,30.17,North,3,5.0,23.0,83,0.00,,,0.00,Wunderground v.1.15,2013-03-21 04:16:00,
2013-03-20 23:18:00,13.3,9.1,30.17,North,11,5.0,23.0,83,0.00,,,0.00,Wunderground v.1.15,2013-03-21 04:18:00,
2013-03-20 23:20:00,13.3,9.1,30.17,North,5,5.0,23.0,83,0.00,,,0.00,Wunderground v.1.15,2013-03-21 04:20:00,
2013-03-20 23:28:00,13.4,8.7,30.17,NNE,20,7.0,23.0,81,0.00,,,0.00,Wunderground v.1.15,2013-03-21 04:28:00,
2013-03-20 23:30:00,13.4,8.4,30.17,NNE,13,8.0,23.0,80,0.00,,,0.00,Wunderground v.1.15,2013-03-21 04:30:00,
2013-03-20 23:32:00,13.4,8.1,30.17,NNE,19,8.0,23.0,79,0.00,,,0.00,Wunderground v.1.15,2013-03-21 04:32:00,
2013-03-20 23:34:00,13.3,7.7,30.17,North,8,9.0,23.0,78,0.00,,,0.00,Wunderground v.1.15,2013-03-21 04:34:00,
2013-03-20 23:40:00,13.2,7.3,30.17,North,358,10.0,10.0,77,0.00,,,0.00,Wunderground v.1.15,2013-03-21 04:40:00,
2013-03-20 23:42:00,13.2,7.3,30.17,NNE,16,10.0,23.0,77,0.00,,,0.00,Wunderground v.1.15,2013-03-21 04:42:00,
2013-03-20 23:44:00,13.2,7.3,30.17,North,11,9.0,23.0,77,0.00,,,0.00,Wunderground v.1.15,2013-03-21 04:44:00,
2013-03-20 23:47:00,13.1,7.2,30.17,NNE,13,10.0,23.0,77,0.00,,,0.00,Wunderground v.1.15,2013-03-21 04:47:00,
2013-03-20 23:54:00,13.0,7.4,30.16,NNW,347,9.0,23.0,78,0.00,,,0.00,Wunderground v.1.15,2013-03-21 04:54:00,
2013-03-20 23:56:00,12.8,7.2,30.17,NNW,340,8.0,23.0,78,0.00,,,0.00,Wunderground v.1.15,2013-03-21 04:56:00,